Time;durP1;ratioP1;P1;durP2;ratioP2;P2;SDS_P1;SDS_P2;PMS_P1;PMS_P2;Temp;Humidity;BMP_temperature;BMP_pressure;BME280_temperature;BME280_humidity;BME280_pressure;Samples;Min_cycle;Max_cycle;Signal;HPM_P1;HPM_P2
2022/04/07 00:02:21;;;;;;;14.63;7.37;;;9.90;99.90;;;;;;5018576;28;20180;-82
2022/04/07 00:04:47;;;;;;;14.60;7.47;;;9.90;99.90;;;;;;5053266;28;20226;-82
2022/04/07 00:07:13;;;;;;;14.50;7.67;;;9.80;99.90;;;;;;5052808;28;20176;-85
2022/04/07 00:09:38;;;;;;;16.13;7.07;;;9.80;99.90;;;;;;5034880;28;20190;-82
2022/04/07 00:12:05;;;;;;;11.23;6.33;;;9.90;99.90;;;;;;5034861;28;20530;-83
2022/04/07 00:14:30;;;;;;;13.87;7.27;;;9.90;99.90;;;;;;5052407;28;20211;-83
2022/04/07 00:16:56;;;;;;;14.87;7.47;;;9.90;99.90;;;;;;5018633;28;20199;-82
2022/04/07 00:19:22;;;;;;;13.33;6.37;;;10.00;99.90;;;;;;5052443;28;20263;-82
2022/04/07 00:21:48;;;;;;;12.17;6.03;;;10.00;99.90;;;;;;5034977;28;20184;-82
2022/04/07 00:24:14;;;;;;;10.93;5.90;;;10.00;99.90;;;;;;5034709;28;20184;-82
2022/04/07 00:26:39;;;;;;;13.67;6.80;;;10.00;99.90;;;;;;5034670;28;20647;-82
2022/04/07 00:29:05;;;;;;;13.97;6.87;;;10.00;99.90;;;;;;5052456;28;20183;-82
2022/04/07 00:31:39;;;;;;;16.20;8.17;;;10.00;99.90;;;;;;5052319;28;20206;-82
2022/04/07 00:34:08;;;;;;;17.07;6.97;;;10.00;99.90;;;;;;5052581;28;20208;-82
2022/04/07 00:36:34;;;;;;;17.03;7.93;;;10.00;99.90;;;;;;5052306;28;20179;-82
2022/04/07 00:39:00;;;;;;;10.60;6.00;;;10.00;99.90;;;;;;5034699;28;20574;-82
2022/04/07 00:41:25;;;;;;;14.70;7.60;;;10.00;99.90;;;;;;5052205;28;20180;-82
2022/04/07 00:43:51;;;;;;;12.97;6.10;;;10.00;99.90;;;;;;5034790;28;20186;-83
2022/04/07 00:46:18;;;;;;;11.80;5.87;;;9.90;99.90;;;;;;5052469;28;20271;-83
2022/04/07 00:48:43;;;;;;;12.57;6.33;;;9.90;99.90;;;;;;5034571;28;20216;-83
2022/04/07 00:51:09;;;;;;;11.53;6.23;;;9.90;99.90;;;;;;5052087;28;20226;-83
2022/04/07 00:53:35;;;;;;;12.17;5.90;;;10.00;99.90;;;;;;5051741;28;20212;-83
2022/04/07 00:56:01;;;;;;;12.50;5.60;;;10.00;99.90;;;;;;5034500;28;20676;-82
2022/04/07 00:58:29;;;;;;;9.37;5.90;;;9.90;99.90;;;;;;5051761;28;20259;-82
2022/04/07 01:00:56;;;;;;;8.93;5.57;;;10.00;99.90;;;;;;5036040;28;20180;-83
2022/04/07 01:03:22;;;;;;;10.03;5.73;;;10.00;99.90;;;;;;5021738;28;20217;-83
2022/04/07 01:05:50;;;;;;;10.87;6.07;;;10.00;99.90;;;;;;5021892;28;20195;-82
2022/04/07 01:08:15;;;;;;;10.67;5.93;;;9.90;99.90;;;;;;5038647;28;20214;-82
2022/04/07 01:10:42;;;;;;;13.13;7.20;;;9.90;99.90;;;;;;5055644;28;20229;-82
2022/04/07 01:13:08;;;;;;;9.73;5.37;;;9.80;99.90;;;;;;5037817;28;20260;-83
2022/04/07 01:15:34;;;;;;;12.23;5.97;;;9.80;99.90;;;;;;5021220;28;20184;-83
2022/04/07 01:18:04;;;;;;;10.23;5.87;;;9.80;99.90;;;;;;5055796;28;20317;-82
2022/04/07 01:20:29;;;;;;;13.47;6.50;;;9.80;99.90;;;;;;5055177;28;20207;-82
2022/04/07 01:22:56;;;;;;;12.47;6.57;;;9.80;99.90;;;;;;5037889;28;20288;-83
2022/04/07 01:25:29;;;;;;;10.43;6.13;;;9.80;99.90;;;;;;5037586;28;20179;-82
2022/04/07 01:27:55;;;;;;;11.43;6.57;;;9.80;99.90;;;;;;5055259;28;20167;-83
2022/04/07 01:30:21;;;;;;;10.47;5.67;;;9.70;99.90;;;;;;5055488;28;20541;-83
2022/04/07 01:32:53;;;;;;;13.30;6.50;;;9.70;99.90;;;;;;5037186;28;20207;-82
2022/04/07 01:35:21;;;;;;;12.17;7.10;;;9.70;99.90;;;;;;5037552;28;20568;-83
2022/04/07 01:37:48;;;;;;;11.97;6.40;;;9.70;99.90;;;;;;5037684;28;20672;-82
2022/04/07 01:40:16;;;;;;;10.27;5.80;;;9.70;99.90;;;;;;5055060;28;20629;-82
2022/04/07 01:42:45;;;;;;;12.73;7.07;;;9.70;99.90;;;;;;5055252;28;20180;-83
2022/04/07 01:45:11;;;;;;;12.93;7.17;;;9.60;99.90;;;;;;5055350;28;20184;-83
2022/04/07 01:47:42;;;;;;;15.03;7.03;;;9.60;99.90;;;;;;5037210;28;20180;-83
2022/04/07 01:50:09;;;;;;;15.00;6.97;;;9.70;99.90;;;;;;5055351;28;20202;-83
2022/04/07 01:52:36;;;;;;;14.73;6.90;;;9.70;99.90;;;;;;5054863;28;20207;-83
2022/04/07 01:55:03;;;;;;;14.57;6.83;;;9.70;99.90;;;;;;5055434;28;20222;-83
2022/04/07 01:57:30;;;;;;;9.93;6.20;;;9.70;99.90;;;;;;5054654;28;20246;-84
2022/04/07 01:59:58;;;;;;;13.00;6.97;;;9.70;99.90;;;;;;5037355;28;20180;-83
2022/04/07 02:02:24;;;;;;;9.93;5.80;;;9.70;99.90;;;;;;5054733;28;20172;-83
2022/04/07 02:04:54;;;;;;;12.03;6.00;;;9.70;99.90;;;;;;5054663;28;20202;-83
2022/04/07 02:07:20;;;;;;;9.07;5.83;;;9.70;99.90;;;;;;5054862;28;20180;-83
2022/04/07 02:09:45;;;;;;;8.20;5.70;;;9.70;99.90;;;;;;5036476;28;20179;-84
2022/04/07 02:12:11;;;;;;;9.80;6.40;;;9.70;99.90;;;;;;5035665;28;20537;-83
2022/04/07 02:14:37;;;;;;;7.53;5.20;;;9.80;99.90;;;;;;5019158;28;20219;-84
2022/04/07 02:17:03;;;;;;;8.33;5.67;;;9.80;99.90;;;;;;5054634;28;20172;-83
2022/04/07 02:19:29;;;;;;;10.80;6.60;;;9.80;99.90;;;;;;5054471;28;20270;-86
2022/04/07 02:21:55;;;;;;;12.57;7.47;;;9.90;99.90;;;;;;5054227;28;20306;-83
2022/04/07 02:24:21;;;;;;;14.33;8.13;;;9.10;99.90;;;;;;5036586;28;20282;-83
2022/04/07 02:26:46;;;;;;;11.03;7.13;;;9.90;99.90;;;;;;5036321;28;20222;-83
2022/04/07 02:29:12;;;;;;;11.43;6.67;;;9.90;99.90;;;;;;5019996;28;20180;-83
2022/04/07 02:31:38;;;;;;;12.53;6.50;;;10.00;99.90;;;;;;5036166;28;20184;-84
2022/04/07 02:34:03;;;;;;;12.63;6.83;;;10.00;99.90;;;;;;5055325;28;20270;-83
2022/04/07 02:36:29;;;;;;;12.13;7.03;;;10.00;99.90;;;;;;5020845;28;20184;-83
2022/04/07 02:38:55;;;;;;;12.23;6.60;;;10.00;99.90;;;;;;5054770;28;20638;-83
2022/04/07 02:41:20;;;;;;;10.83;6.63;;;10.00;99.90;;;;;;5037799;28;20184;-83
2022/04/07 02:43:48;;;;;;;8.83;5.63;;;10.00;99.90;;;;;;5064154;28;20184;-83
2022/04/07 02:46:14;;;;;;;11.10;5.33;;;10.00;99.90;;;;;;5070864;28;20191;-83
2022/04/07 02:48:40;;;;;;;9.97;5.67;;;10.00;99.90;;;;;;5052580;28;20628;-83
2022/04/07 02:51:05;;;;;;;9.77;5.80;;;10.00;99.90;;;;;;5052162;28;20180;-83
2022/04/07 02:53:31;;;;;;;14.50;6.10;;;9.90;99.90;;;;;;5042095;28;20219;-83
2022/04/07 02:55:57;;;;;;;8.83;5.23;;;10.00;99.90;;;;;;5053835;28;20176;-83
2022/04/07 02:58:23;;;;;;;10.37;5.80;;;9.90;99.90;;;;;;5054085;28;20563;-83
2022/04/07 03:00:48;;;;;;;9.30;5.63;;;10.00;99.90;;;;;;5053744;28;20187;-83
2022/04/07 03:03:14;;;;;;;7.97;5.30;;;10.00;99.90;;;;;;5053848;28;20250;-84
2022/04/07 03:05:40;;;;;;;9.30;6.60;;;9.90;99.90;;;;;;5036010;28;20176;-84
2022/04/07 03:08:05;;;;;;;11.43;5.50;;;10.00;99.90;;;;;;5053783;28;20512;-85
2022/04/07 03:10:31;;;;;;;13.30;5.63;;;10.00;99.90;;;;;;5053659;28;20211;-83
2022/04/07 03:12:57;;;;;;;9.73;5.90;;;10.00;99.90;;;;;;5035473;28;20636;-83
2022/04/07 03:15:23;;;;;;;10.77;6.07;;;10.10;99.90;;;;;;5003106;28;20759;-83
2022/04/07 03:17:48;;;;;;;10.17;5.63;;;10.00;99.90;;;;;;5035357;28;20549;-83
2022/04/07 03:20:14;;;;;;;8.87;6.10;;;10.00;99.90;;;;;;5053646;28;20198;-83
2022/04/07 03:22:39;;;;;;;12.37;8.97;;;10.00;99.90;;;;;;5053056;28;20234;-83
2022/04/07 03:25:07;;;;;;;21.33;15.53;;;10.00;99.90;;;;;;5035412;28;20180;-83
2022/04/07 03:27:33;;;;;;;12.53;8.97;;;10.00;99.90;;;;;;5035758;28;20262;-83
2022/04/07 03:29:59;;;;;;;9.87;6.77;;;10.00;99.90;;;;;;5018739;28;20303;-83
2022/04/07 03:32:25;;;;;;;11.33;7.57;;;10.00;99.90;;;;;;5035542;28;20175;-83
2022/04/07 03:34:50;;;;;;;14.67;9.37;;;10.00;99.90;;;;;;5052843;28;20676;-83
2022/04/07 03:37:17;;;;;;;12.27;8.80;;;10.00;99.90;;;;;;5052822;28;20249;-83
2022/04/07 03:39:43;;;;;;;9.33;6.77;;;10.10;99.90;;;;;;5034981;28;20226;-84
2022/04/07 03:42:08;;;;;;;9.27;6.27;;;10.10;99.90;;;;;;5052670;28;20628;-83
2022/04/07 03:44:34;;;;;;;9.73;5.97;;;10.10;99.90;;;;;;5053059;28;20652;-83
2022/04/07 03:47:00;;;;;;;7.50;5.55;;;10.10;99.90;;;;;;5034556;28;20962;-83
2022/04/07 03:49:26;;;;;;;8.63;5.93;;;10.10;99.90;;;;;;5035590;28;20172;-83
2022/04/07 03:51:52;;;;;;;9.17;5.83;;;10.10;99.90;;;;;;5034949;28;20624;-83
2022/04/07 03:54:18;;;;;;;8.77;6.03;;;10.10;99.90;;;;;;5018859;28;20211;-83
2022/04/07 03:56:45;;;;;;;11.10;5.60;;;10.10;99.90;;;;;;5052397;28;20207;-84
2022/04/07 03:59:10;;;;;;;12.40;5.63;;;10.10;99.90;;;;;;5061652;28;20231;-83
2022/04/07 04:01:36;;;;;;;7.50;5.30;;;10.10;99.90;;;;;;5054964;28;20182;-83
2022/04/07 04:04:02;;;;;;;9.20;5.80;;;10.20;99.90;;;;;;5071242;28;20217;-83
2022/04/07 04:06:27;;;;;;;11.30;6.20;;;10.20;99.90;;;;;;5071438;28;20304;-83
2022/04/07 04:08:53;;;;;;;9.80;5.90;;;10.10;99.90;;;;;;5071352;28;20190;-83
2022/04/07 04:11:19;;;;;;;8.93;6.00;;;10.10;99.90;;;;;;5072707;28;20217;-84
2022/04/07 04:13:45;;;;;;;12.30;6.83;;;10.10;99.90;;;;;;5072074;28;20586;-86
2022/04/07 04:16:14;;;;;;;9.47;6.80;;;10.10;99.90;;;;;;5054958;28;20184;-83
2022/04/07 04:18:41;;;;;;;15.70;7.60;;;10.10;99.90;;;;;;5071394;28;20179;-83
2022/04/07 04:21:07;;;;;;;11.53;7.50;;;10.00;99.90;;;;;;5071511;28;20182;-83
2022/04/07 04:23:33;;;;;;;20.93;7.23;;;10.10;99.90;;;;;;5071580;28;20187;-83
2022/04/07 04:25:58;;;;;;;8.23;6.20;;;10.10;99.90;;;;;;5071307;28;20191;-83
2022/04/07 04:28:24;;;;;;;15.77;6.50;;;10.00;99.90;;;;;;5071409;28;20180;-83
2022/04/07 04:30:50;;;;;;;10.43;6.33;;;10.10;99.90;;;;;;5071285;28;20179;-85
2022/04/07 04:33:15;;;;;;;11.20;5.90;;;10.00;99.90;;;;;;5054720;28;20211;-83
2022/04/07 04:35:41;;;;;;;7.67;5.57;;;10.10;99.90;;;;;;5072301;28;20598;-84
2022/04/07 04:38:06;;;;;;;11.90;6.93;;;10.00;99.90;;;;;;5075161;28;20544;-83
2022/04/07 04:40:33;;;;;;;7.53;5.00;;;10.00;99.90;;;;;;5075721;28;20534;-83
2022/04/07 04:43:00;;;;;;;11.33;5.67;;;10.00;99.90;;;;;;5075320;28;20238;-84
2022/04/07 04:45:25;;;;;;;9.90;6.00;;;10.00;99.90;;;;;;5057282;28;20191;-83
2022/04/07 04:47:52;;;;;;;10.63;6.70;;;10.10;99.90;;;;;;5059150;28;20305;-85
2022/04/07 04:50:19;;;;;;;10.33;6.07;;;10.10;99.90;;;;;;5067062;28;20353;-84
2022/04/07 04:52:45;;;;;;;10.53;6.20;;;10.10;99.90;;;;;;5061808;28;20218;-83
2022/04/07 04:55:11;;;;;;;7.67;5.73;;;10.10;99.90;;;;;;5064634;28;20636;-83
2022/04/07 04:57:37;;;;;;;7.60;5.78;;;10.20;99.90;;;;;;5068050;28;20647;-84
2022/04/07 05:00:04;;;;;;;8.57;6.30;;;10.20;99.90;;;;;;5021876;28;20187;-84
2022/04/07 05:02:30;;;;;;;7.80;5.90;;;10.30;99.90;;;;;;5028935;28;20192;-86
2022/04/07 05:04:56;;;;;;;11.47;6.63;;;10.40;99.90;;;;;;5015468;28;20296;-84
2022/04/07 05:07:22;;;;;;;12.43;6.33;;;10.40;99.90;;;;;;4996110;28;20269;-84
2022/04/07 05:09:48;;;;;;;11.93;7.80;;;10.40;99.90;;;;;;5018050;28;20226;-83
2022/04/07 05:12:13;;;;;;;11.60;6.10;;;10.40;99.90;;;;;;5049195;28;20184;-84
2022/04/07 05:14:39;;;;;;;14.40;5.37;;;10.50;99.90;;;;;;5008752;28;20716;-84
2022/04/07 05:17:05;;;;;;;10.35;6.20;;;10.60;99.90;;;;;;5011293;28;20641;-82
2022/04/07 05:19:30;;;;;;;8.43;5.00;;;10.70;99.90;;;;;;5011747;28;20241;-83
2022/04/07 05:21:56;;;;;;;11.40;6.28;;;10.70;99.90;;;;;;5013503;28;20192;-83
2022/04/07 05:24:22;;;;;;;13.43;5.57;;;10.70;99.90;;;;;;5030441;28;20200;-85
2022/04/07 05:26:48;;;;;;;8.27;5.20;;;10.80;99.90;;;;;;5011284;28;20219;-83
2022/04/07 05:29:13;;;;;;;8.00;4.80;;;10.80;99.90;;;;;;5036305;28;20202;-86
2022/04/07 05:31:39;;;;;;;8.75;5.50;;;10.80;99.90;;;;;;5012651;28;20625;-85
2022/04/07 05:34:05;;;;;;;14.82;5.88;;;10.80;99.90;;;;;;5020720;28;20269;-85
2022/04/07 05:36:31;;;;;;;10.88;6.10;;;10.80;99.90;;;;;;5022286;28;20635;-88
2022/04/07 05:38:57;;;;;;;10.60;5.63;;;10.80;99.90;;;;;;5021794;28;20239;-84
2022/04/07 05:41:22;;;;;;;9.20;5.90;;;10.80;99.90;;;;;;5005095;28;20208;-84
2022/04/07 05:43:48;;;;;;;12.70;6.70;;;10.90;99.90;;;;;;5016799;28;20791;-85
2022/04/07 05:46:14;;;;;;;10.93;5.73;;;10.90;99.90;;;;;;4999493;28;20191;-84
2022/04/07 05:48:40;;;;;;;8.40;4.75;;;10.90;99.90;;;;;;4985828;28;20354;-81
2022/04/07 05:51:05;;;;;;;8.13;5.03;;;10.90;99.90;;;;;;5046194;28;20672;-85
2022/04/07 05:53:31;;;;;;;12.07;4.90;;;10.90;99.90;;;;;;5003131;28;20212;-82
2022/04/07 05:56:00;;;;;;;14.07;5.43;;;11.00;99.90;;;;;;5040469;28;20188;-84
2022/04/07 05:58:26;;;;;;;11.52;5.22;;;11.00;99.90;;;;;;5020036;28;20301;-82
2022/04/07 06:00:52;;;;;;;16.37;5.70;;;11.00;99.90;;;;;;5058864;28;20278;-82
2022/04/07 06:03:18;;;;;;;11.30;6.50;;;11.10;99.90;;;;;;5062918;28;20297;-82
2022/04/07 06:05:44;;;;;;;8.15;5.25;;;11.20;99.90;;;;;;5054976;28;20214;-86
2022/04/07 06:08:10;;;;;;;11.57;7.05;;;11.10;99.90;;;;;;5068612;28;20703;-87
2022/04/07 06:10:36;;;;;;;11.97;7.13;;;11.20;99.90;;;;;;5062188;28;20193;-83
2022/04/07 06:13:02;;;;;;;10.40;6.85;;;11.30;99.90;;;;;;5057719;28;20207;-84
2022/04/07 06:15:29;;;;;;;10.98;5.78;;;11.30;99.90;;;;;;5053585;28;20180;-83
2022/04/07 06:17:55;;;;;;;8.38;5.60;;;11.40;99.90;;;;;;5059152;28;20194;-87
2022/04/07 06:20:21;;;;;;;10.70;5.40;;;11.40;99.90;;;;;;5053656;28;20175;-84
2022/04/07 06:22:47;;;;;;;7.50;5.05;;;11.50;99.90;;;;;;5056968;28;21018;-84
2022/04/07 06:25:13;;;;;;;8.75;5.07;;;11.50;99.90;;;;;;5044503;28;20191;-86
2022/04/07 06:27:46;;;;;;;7.07;5.05;;;11.60;99.90;;;;;;5069148;28;20187;-81
2022/04/07 06:30:17;;;;;;;11.82;5.28;;;11.60;99.90;;;;;;5052803;28;20172;-86
2022/04/07 06:32:43;;;;;;;11.82;4.85;;;11.60;99.90;;;;;;5061707;28;20179;-83
2022/04/07 06:35:10;;;;;;;10.95;5.65;;;11.70;99.90;;;;;;5055856;28;20658;-85
2022/04/07 06:37:52;;;;;;;8.20;5.40;;;11.70;99.90;;;;;;5056773;28;20195;-83
2022/04/07 06:40:22;;;;;;;8.45;4.57;;;11.70;99.90;;;;;;5041258;28;20175;-86
2022/04/07 06:42:49;;;;;;;7.65;4.55;;;11.80;99.90;;;;;;5058966;28;20207;-84
2022/04/07 06:45:15;;;;;;;13.07;5.65;;;11.90;99.90;;;;;;5055750;28;20183;-84
2022/04/07 06:47:41;;;;;;;40.45;6.13;;;12.00;99.90;;;;;;5036382;28;20180;-85
2022/04/07 06:50:11;;;;;;;15.18;4.75;;;12.10;99.90;;;;;;5050180;28;20189;-86
2022/04/07 06:52:38;;;;;;;7.57;5.25;;;12.30;99.90;;;;;;5057113;28;20549;-85
2022/04/07 06:55:04;;;;;;;7.65;4.78;;;12.40;99.90;;;;;;5052032;28;20183;-86
2022/04/07 06:57:30;;;;;;;8.00;5.22;;;12.50;99.90;;;;;;5040029;28;20269;-86
2022/04/07 06:59:56;;;;;;;7.70;4.93;;;12.60;99.90;;;;;;5016665;28;21085;-87
2022/04/07 07:02:22;;;;;;;8.20;5.15;;;12.70;99.90;;;;;;5018973;28;20677;-87
2022/04/07 07:04:48;;;;;;;8.60;5.22;;;12.80;99.90;;;;;;5004926;28;20254;-85
2022/04/07 07:07:14;;;;;;;8.60;5.47;;;12.90;99.90;;;;;;4996657;28;20187;-88
2022/04/07 07:09:39;;;;;;;7.43;5.30;;;13.10;99.90;;;;;;5029168;28;20192;-87
2022/04/07 07:12:05;;;;;;;15.50;5.15;;;13.00;99.90;;;;;;5002222;28;20191;-87
2022/04/07 07:14:31;;;;;;;7.80;5.00;;;13.20;99.90;;;;;;5035233;28;20678;-86
2022/04/07 07:16:57;;;;;;;11.80;5.03;;;13.20;99.90;;;;;;5034462;28;20629;-88
2022/04/07 07:19:28;;;;;;;9.52;5.88;;;13.30;99.90;;;;;;5051608;28;20174;-84
2022/04/07 07:21:54;;;;;;;10.45;5.10;;;13.30;99.90;;;;;;5029480;28;20206;-85
2022/04/07 07:24:20;;;;;;;13.15;5.70;;;13.20;99.90;;;;;;5032765;28;20702;-83
2022/04/07 07:26:46;;;;;;;8.35;5.35;;;13.20;99.90;;;;;;5035919;28;20180;-83
2022/04/07 07:29:12;;;;;;;6.35;4.97;;;13.20;99.90;;;;;;5035301;28;20221;-83
2022/04/07 07:31:37;;;;;;;8.32;5.60;;;13.30;99.90;;;;;;5019378;28;20180;-82
2022/04/07 07:34:03;;;;;;;7.45;5.57;;;13.40;99.90;;;;;;5030869;28;20722;-84
2022/04/07 07:36:30;;;;;;;8.80;4.97;;;13.50;99.90;;;;;;4999471;28;20196;-83
2022/04/07 07:38:56;;;;;;;7.20;5.30;;;13.60;99.90;;;;;;5015953;28;20187;-82
2022/04/07 07:41:21;;;;;;;8.27;4.95;;;13.70;99.90;;;;;;5015189;28;20633;-83
2022/04/07 07:43:47;;;;;;;9.43;5.05;;;13.80;99.90;;;;;;5016021;28;20194;-83
2022/04/07 07:46:13;;;;;;;14.88;6.07;;;13.90;99.90;;;;;;5032900;28;20180;-83
2022/04/07 07:48:38;;;;;;;9.43;6.03;;;14.00;99.90;;;;;;5015652;28;20586;-83
2022/04/07 07:51:04;;;;;;;8.52;5.95;;;14.10;99.90;;;;;;4998949;28;20256;-83
2022/04/07 07:53:30;;;;;;;9.90;6.43;;;14.20;99.90;;;;;;5014739;28;20599;-82
2022/04/07 07:55:56;;;;;;;13.55;6.13;;;14.20;99.90;;;;;;5032864;28;20177;-82
2022/04/07 07:58:25;;;;;;;10.50;5.78;;;14.20;99.90;;;;;;5028471;28;20258;-83
2022/04/07 08:00:51;;;;;;;11.32;6.50;;;14.40;99.90;;;;;;5052837;28;20172;-83
2022/04/07 08:03:17;;;;;;;9.85;6.20;;;14.40;99.90;;;;;;5051453;28;20229;-83
2022/04/07 08:05:42;;;;;;;11.57;6.35;;;14.50;99.90;;;;;;5051723;28;20573;-82
2022/04/07 08:08:08;;;;;;;10.98;6.43;;;14.50;99.90;;;;;;5051326;28;20187;-82
2022/04/07 08:10:34;;;;;;;9.90;5.88;;;14.50;99.90;;;;;;5036077;28;20176;-82
2022/04/07 08:13:00;;;;;;;11.07;6.78;;;14.50;99.90;;;;;;5055288;28;20542;-83
2022/04/07 08:15:27;;;;;;;11.90;6.72;;;14.50;99.90;;;;;;5039336;28;20179;-82
2022/04/07 08:17:53;;;;;;;10.60;6.90;;;14.60;99.90;;;;;;5056661;28;20182;-84
2022/04/07 08:20:19;;;;;;;10.75;6.80;;;14.60;99.90;;;;;;5055314;28;20175;-83
2022/04/07 08:22:44;;;;;;;10.82;6.10;;;14.70;99.90;;;;;;5055888;28;20184;-83
2022/04/07 08:25:10;;;;;;;10.10;5.65;;;14.70;99.90;;;;;;5039306;28;20230;-83
2022/04/07 08:27:36;;;;;;;13.27;6.38;;;14.60;99.90;;;;;;5055788;28;20633;-83
2022/04/07 08:30:03;;;;;;;11.50;6.07;;;14.60;99.90;;;;;;5039019;28;20541;-83
2022/04/07 08:32:31;;;;;;;13.88;6.07;;;14.80;99.90;;;;;;5056630;28;20180;-83
2022/04/07 08:34:58;;;;;;;9.75;5.43;;;14.90;99.90;;;;;;5039560;28;20207;-83
2022/04/07 08:37:24;;;;;;;10.00;5.32;;;15.00;99.90;;;;;;5039471;28;20593;-83
2022/04/07 08:39:51;;;;;;;7.10;4.93;;;15.10;99.90;;;;;;5039876;28;20175;-84
2022/04/07 08:42:22;;;;;;;10.15;5.10;;;15.30;99.90;;;;;;5056002;28;20187;-84
2022/04/07 08:44:48;;;;;;;6.68;4.38;;;15.40;99.90;;;;;;5078407;28;20155;-83
2022/04/07 08:47:18;;;;;;;9.05;4.22;;;15.60;99.90;;;;;;5072394;28;20183;-85
2022/04/07 08:49:44;;;;;;;8.32;4.22;;;15.60;99.90;;;;;;5068520;28;20160;-84
2022/04/07 08:52:11;;;;;;;8.00;4.32;;;15.40;99.90;;;;;;5038871;28;20187;-83
2022/04/07 08:54:37;;;;;;;7.22;4.78;;;15.40;99.90;;;;;;5038562;28;20207;-83
2022/04/07 08:57:03;;;;;;;5.95;4.00;;;15.40;99.90;;;;;;5055051;28;20188;-83
2022/04/07 08:59:30;;;;;;;7.00;4.03;;;15.60;99.90;;;;;;5054881;28;20581;-83
2022/04/07 09:02:05;;;;;;;8.48;5.22;;;15.80;99.90;;;;;;5054966;28;20188;-83
2022/04/07 09:04:37;;;;;;;10.00;4.93;;;15.80;99.90;;;;;;5053917;28;20183;-83
2022/04/07 09:07:03;;;;;;;8.25;4.38;;;15.90;99.90;;;;;;5054931;28;20290;-83
2022/04/07 09:09:31;;;;;;;9.95;4.38;;;16.00;99.90;;;;;;5055646;28;20187;-85
2022/04/07 09:11:57;;;;;;;7.80;4.57;;;16.00;99.90;;;;;;5054734;28;20230;-83
2022/04/07 09:14:24;;;;;;;9.27;4.50;;;16.00;99.90;;;;;;5054641;28;20212;-84
2022/04/07 09:16:54;;;;;;;6.22;3.70;;;16.10;99.90;;;;;;5055960;28;20172;-84
2022/04/07 09:19:21;;;;;;;5.72;3.67;;;16.10;99.90;;;;;;5048464;28;20184;-84
2022/04/07 09:21:47;;;;;;;8.23;4.60;;;15.90;99.90;;;;;;5063617;28;20180;-83
2022/04/07 09:24:13;;;;;;;6.63;3.97;;;16.00;99.90;;;;;;5064471;28;20184;-83
2022/04/07 09:26:43;;;;;;;5.40;3.72;;;16.10;98.90;;;;;;5062718;28;20289;-83
2022/04/07 09:29:14;;;;;;;5.30;3.95;;;16.10;98.40;;;;;;5063015;28;20233;-84
2022/04/07 09:31:49;;;;;;;6.65;4.40;;;16.20;99.10;;;;;;5066310;28;20167;-83
2022/04/07 09:34:15;;;;;;;6.90;4.47;;;16.30;99.30;;;;;;5066528;28;20286;-83
2022/04/07 09:36:41;;;;;;;5.78;4.63;;;16.50;99.80;;;;;;5047924;28;20644;-83
2022/04/07 09:39:06;;;;;;;8.02;3.92;;;16.60;99.90;;;;;;5066559;28;20183;-83
2022/04/07 09:41:32;;;;;;;13.30;4.30;;;16.60;98.70;;;;;;5074221;28;20639;-83
2022/04/07 09:43:59;;;;;;;7.60;4.20;;;16.80;96.10;;;;;;5070706;28;20644;-83
2022/04/07 09:46:31;;;;;;;10.10;4.93;;;16.80;95.80;;;;;;5073915;28;20186;-85
2022/04/07 09:49:09;;;;;;;9.63;4.65;;;16.70;99.40;;;;;;5074423;28;20306;-83
2022/04/07 09:51:40;;;;;;;12.77;4.18;;;16.60;97.50;;;;;;5075077;28;20151;-83
2022/04/07 09:54:10;;;;;;;10.30;4.57;;;16.50;99.80;;;;;;5075424;28;20199;-85
2022/04/07 09:56:36;;;;;;;7.00;4.55;;;16.50;99.90;;;;;;5074867;28;20179;-84
2022/04/07 09:59:05;;;;;;;6.80;4.05;;;16.50;97.90;;;;;;5073767;28;20230;-82
2022/04/07 10:01:35;;;;;;;6.72;3.65;;;16.50;97.20;;;;;;5073595;28;20196;-82
2022/04/07 10:04:03;;;;;;;6.55;3.58;;;16.40;96.80;;;;;;5074965;28;20242;-83
2022/04/07 10:06:31;;;;;;;8.32;3.67;;;16.40;97.20;;;;;;5057022;28;20252;-83
2022/04/07 10:09:00;;;;;;;9.18;4.82;;;16.40;98.80;;;;;;5073526;28;20175;-82
2022/04/07 10:11:28;;;;;;;5.30;3.30;;;16.40;98.70;;;;;;5074269;28;20254;-85
2022/04/07 10:13:55;;;;;;;5.82;2.78;;;16.40;99.10;;;;;;5057056;28;20210;-84
2022/04/07 10:16:21;;;;;;;4.82;2.70;;;16.30;99.70;;;;;;5040525;28;20183;-84
2022/04/07 10:18:54;;;;;;;3.20;2.38;;;16.30;98.70;;;;;;5074343;28;20651;-82
2022/04/07 10:21:44;;;;;;;4.40;2.63;;;16.20;99.00;;;;;;5073510;28;20179;-84
2022/04/07 10:24:19;;;;;;;3.95;2.70;;;16.20;99.90;;;;;;5074931;28;20170;-83
2022/04/07 10:26:47;;;;;;;4.72;2.88;;;16.20;99.90;;;;;;5073132;28;20187;-82
2022/04/07 10:29:23;;;;;;;3.40;2.65;;;16.30;99.10;;;;;;5075462;28;20167;-84
2022/04/07 10:32:10;;;;;;;4.80;2.50;;;16.50;98.00;;;;;;5072855;28;20281;-84
2022/04/07 10:34:42;;;;;;;3.78;2.55;;;16.80;97.10;;;;;;5073097;28;20198;-84
2022/04/07 10:37:09;;;;;;;8.23;2.72;;;16.90;94.40;;;;;;5073238;28;20164;-84
2022/04/07 10:39:39;;;;;;;4.20;2.80;;;17.00;93.40;;;;;;5072415;28;20270;-85
2022/04/07 10:42:05;;;;;;;2.88;2.42;;;17.20;93.10;;;;;;5063785;28;20206;-84
2022/04/07 10:44:33;;;;;;;7.80;2.50;;;17.30;91.30;;;;;;5046400;28;20188;-84
2022/04/07 10:47:03;;;;;;;4.28;2.65;;;17.10;91.40;;;;;;5059628;28;20190;-83
2022/04/07 10:49:30;;;;;;;4.30;3.00;;;17.00;91.40;;;;;;5074404;28;20186;-84
2022/04/07 10:51:58;;;;;;;4.18;2.78;;;17.20;91.10;;;;;;5074220;28;20164;-84
2022/04/07 10:54:28;;;;;;;3.42;2.22;;;17.30;89.90;;;;;;5072440;28;20233;-84
2022/04/07 10:56:59;;;;;;;5.50;2.67;;;17.30;90.20;;;;;;5073569;28;20258;-83
2022/04/07 10:59:31;;;;;;;4.35;2.83;;;17.60;90.10;;;;;;5058784;28;20692;-84
2022/04/07 11:02:01;;;;;;;6.72;2.67;;;17.70;89.00;;;;;;5035811;28;20652;-84
2022/04/07 11:04:37;;;;;;;3.85;2.10;;;17.80;82.50;;;;;;5035727;28;20179;-84
2022/04/07 11:07:15;;;;;;;4.22;1.83;;;17.60;83.20;;;;;;5053715;28;20221;-84
2022/04/07 11:09:48;;;;;;;2.83;2.20;;;17.60;81.00;;;;;;5035124;28;20210;-84
2022/04/07 11:12:28;;;;;;;3.22;2.03;;;17.50;81.10;;;;;;5053677;28;20200;-84
2022/04/07 11:15:17;;;;;;;3.63;1.70;;;17.70;81.30;;;;;;5035428;28;20276;-84
2022/04/07 11:17:43;;;;;;;2.67;1.90;;;17.90;76.40;;;;;;5052931;28;20203;-84
2022/04/07 11:20:15;;;;;;;5.72;2.05;;;17.80;76.40;;;;;;5035809;28;20188;-84
2022/04/07 11:23:01;;;;;;;9.40;2.38;;;18.00;74.90;;;;;;5053178;28;20200;-85
2022/04/07 11:25:31;;;;;;;5.50;2.28;;;18.20;77.20;;;;;;5053904;28;20172;-84
2022/04/07 11:28:17;;;;;;;6.32;1.48;;;18.40;71.90;;;;;;5034948;28;20648;-84
2022/04/07 11:30:53;;;;;;;3.88;1.77;;;18.40;69.40;;;;;;5034965;28;20198;-85
2022/04/07 11:33:19;;;;;;;16.67;2.40;;;18.30;69.40;;;;;;5035158;28;20727;-84
2022/04/07 11:36:00;;;;;;;6.88;1.42;;;18.30;70.20;;;;;;5052651;28;20256;-85
2022/04/07 11:38:26;;;;;;;4.43;1.70;;;18.30;73.30;;;;;;5053186;28;20263;-85
2022/04/07 11:41:10;;;;;;;6.07;2.55;;;18.10;72.40;;;;;;5052648;28;20175;-84
2022/04/07 11:43:44;;;;;;;5.80;1.90;;;18.40;72.20;;;;;;5053108;28;20180;-82
2022/04/07 11:46:10;;;;;;;3.13;1.70;;;18.50;71.40;;;;;;5052985;28;20164;-82
2022/04/07 11:48:40;;;;;;;2.83;1.48;;;18.50;70.80;;;;;;5053057;28;20184;-84
2022/04/07 11:51:14;;;;;;;5.57;1.85;;;18.50;71.40;;;;;;5035116;28;20206;-84
2022/04/07 11:53:41;;;;;;;4.60;1.85;;;18.30;70.90;;;;;;5052794;28;20204;-84
2022/04/07 11:56:34;;;;;;;7.40;4.07;;;18.40;71.70;;;;;;5035106;28;20707;-82
2022/04/07 11:59:06;;;;;;;2.53;1.95;;;18.50;73.20;;;;;;5052241;28;20267;-82
2022/04/07 12:01:32;;;;;;;4.93;2.22;;;18.90;70.20;;;;;;5034115;28;20509;-82
2022/04/07 12:04:00;;;;;;;3.38;1.88;;;19.00;71.50;;;;;;5051739;28;20186;-82
2022/04/07 12:06:31;;;;;;;3.00;2.25;;;19.20;69.40;;;;;;5052367;28;20537;-82
2022/04/07 12:08:58;;;;;;;3.63;2.33;;;19.40;71.90;;;;;;5052660;28;20175;-82
2022/04/07 12:11:25;;;;;;;6.90;2.10;;;19.60;68.30;;;;;;5052051;28;20176;-83
2022/04/07 12:13:52;;;;;;;3.78;2.15;;;19.30;67.70;;;;;;5052337;28;20227;-83
2022/04/07 12:16:19;;;;;;;3.78;2.88;;;19.30;70.30;;;;;;5052489;28;20648;-82
2022/04/07 12:19:07;;;;;;;6.55;2.38;;;19.60;69.20;;;;;;5034836;28;20179;-82
2022/04/07 12:21:53;;;;;;;3.58;2.22;;;19.80;68.70;;;;;;5051969;28;20217;-82
2022/04/07 12:24:18;;;;;;;5.43;2.35;;;20.00;66.90;;;;;;5034663;28;20180;-82
2022/04/07 12:26:45;;;;;;;3.75;2.40;;;19.70;66.00;;;;;;5001523;28;20649;-84
2022/04/07 12:29:14;;;;;;;4.18;2.53;;;19.40;67.00;;;;;;5017667;28;20178;-82
2022/04/07 12:31:40;;;;;;;5.95;2.75;;;19.10;68.30;;;;;;5051629;28;20184;-82
2022/04/07 12:34:19;;;;;;;7.63;2.65;;;19.20;70.10;;;;;;5034551;28;20749;-83
2022/04/07 12:36:45;;;;;;;4.22;2.60;;;18.90;71.30;;;;;;5052834;28;20183;-84
2022/04/07 12:39:12;;;;;;;7.68;2.70;;;19.20;72.10;;;;;;5034782;28;20644;-82
2022/04/07 12:41:43;;;;;;;3.10;2.17;;;19.60;69.60;;;;;;5017449;28;20184;-82
2022/04/07 12:44:10;;;;;;;3.85;2.50;;;20.00;67.50;;;;;;5034382;28;20545;-82
2022/04/07 12:46:47;;;;;;;4.45;2.17;;;19.70;66.00;;;;;;5017635;28;20222;-83